Saint Anthony, Minnesota
Current Conditions -  °F | °C
As of 12:53 PM on Sunday 23 Nov 2014 (Local Time) from KMIC Reporting Station
Overcast Overcast  
Wind Chill: 41°   Ceiling: 2300
Heat Index: 45°   Visibility: 10mi
Dew Point: 38°   Wind: 7mph
Humidity: 76%   Direction: 320°NW
Pressure: 29.4"   Gusts: NA
Location:  45.0516°N, 93.2549°W
Report Text: KMIC 231853Z 32006KT 10SM OVC023 07/03 A2940 RMK AO2 SLP961 T00720033
Loading
Personal Weather Stations






























Interactive Weather Map New forecast layout! Learn more

10-Day Weather Forecast

Advertisements
Track Severe Weather on mobile